Time;durP1;ratioP1;P1;durP2;ratioP2;P2;SDS_P1;SDS_P2;PMS_P1;PMS_P2;Temp;Humidity;BMP_temperature;BMP_pressure;BME280_temperature;BME280_humidity;BME280_pressure;Samples;Min_cycle;Max_cycle;Signal;HPM_P1;HPM_P2
2022/02/15 00:05:20;;;;;;;12.90;5.97;;;;;;;0.34;63.60;101537.44;30697641;28;20449;-81
2022/02/15 00:20:22;;;;;;;13.70;6.10;;;;;;;0.15;62.99;101512.91;30746679;28;20138;-77
2022/02/15 00:35:24;;;;;;;9.40;5.57;;;;;;;-0.03;64.73;101501.44;30729704;28;20044;-77
2022/02/15 00:50:26;;;;;;;13.97;5.70;;;;;;;-0.18;66.70;101496.53;30765088;28;20047;-79
2022/02/15 01:05:28;;;;;;;11.33;5.43;;;;;;;-0.32;67.42;101482.53;30754150;28;20102;-77
2022/02/15 01:20:30;;;;;;;18.33;4.90;;;;;;;-0.50;67.31;101471.84;30710953;28;20055;-77
2022/02/15 01:35:32;;;;;;;11.97;4.93;;;;;;;-0.65;69.69;101464.25;30707837;28;20075;-78
2022/02/15 01:50:33;;;;;;;9.40;5.13;;;;;;;-0.69;68.72;101469.41;30705141;28;20480;-78
2022/02/15 02:05:47;;;;;;;14.87;5.17;;;;;;;-0.96;69.18;101471.53;30738525;28;20043;-78
2022/02/15 02:20:49;;;;;;;8.10;4.73;;;;;;;-1.21;72.00;101489.75;30710081;28;20055;-78
2022/02/15 02:35:59;;;;;;;8.97;4.90;;;;;;;-1.19;71.37;101492.88;30718971;28;20046;-77
2022/02/15 02:51:01;;;;;;;10.77;4.47;;;;;;;-1.24;72.97;101485.00;30716348;28;20059;-78
2022/02/15 03:06:07;;;;;;;13.43;5.97;;;;;;;-1.27;73.51;101469.63;30775417;28;20052;-78
2022/02/15 03:21:09;;;;;;;14.63;5.80;;;;;;;-1.22;72.56;101461.53;30736166;28;20062;-78
2022/02/15 03:36:11;;;;;;;13.93;7.37;;;;;;;-1.21;71.98;101447.09;30731023;28;20054;-77
2022/02/15 03:51:13;;;;;;;25.97;11.63;;;;;;;-1.38;74.55;101466.44;30755173;28;20073;-77
2022/02/15 04:06:15;;;;;;;23.87;12.33;;;;;;;-1.39;74.09;101462.19;30751998;28;20054;-78
2022/02/15 04:21:20;;;;;;;22.93;12.20;;;;;;;-1.31;74.67;101479.31;30743608;28;20051;-78
2022/02/15 04:36:22;;;;;;;30.20;13.67;;;;;;;-1.46;76.36;101488.50;30729389;28;20074;-80
2022/02/15 04:51:24;;;;;;;32.80;15.80;;;;;;;-1.57;75.25;101491.69;30724754;28;20153;-78
2022/02/15 05:06:26;;;;;;;33.43;12.67;;;;;;;-1.72;74.41;101506.94;30740673;28;20075;-78
2022/02/15 05:21:28;;;;;;;21.90;8.83;;;;;;;-1.85;75.96;101526.38;30768924;28;20051;-79
2022/02/15 05:36:33;;;;;;;64.80;17.97;;;;;;;-1.19;73.33;101546.19;30733393;28;20156;-79
2022/02/15 05:51:35;;;;;;;15.93;7.43;;;;;;;-0.22;70.14;101556.97;30729849;28;20083;-78
2022/02/15 06:06:39;;;;;;;10.30;4.90;;;;;;;1.13;63.30;101550.38;30701478;28;20066;-73
2022/02/15 06:21:41;;;;;;;13.13;5.53;;;;;;;2.92;58.37;101546.06;30729909;28;20075;-78
2022/02/15 06:36:43;;;;;;;17.43;5.37;;;;;;;4.47;52.74;101539.78;30715367;29;20134;-78
2022/02/15 06:51:45;;;;;;;12.33;5.83;;;;;;;5.20;49.83;101531.31;30698771;28;20560;-77
2022/02/15 07:06:49;;;;;;;8.33;5.10;;;;;;;5.77;48.74;101533.44;30759880;28;20722;-76
2022/02/15 07:21:51;;;;;;;8.90;4.23;;;;;;;6.60;47.74;101515.97;30702772;28;20142;-76
2022/02/15 07:36:53;;;;;;;13.23;3.80;;;;;;;6.91;45.44;101514.19;30726561;28;20134;-77
2022/02/15 07:51:56;;;;;;;4.83;3.00;;;;;;;7.37;45.07;101504.16;30734328;28;20051;-77
2022/02/15 08:07:00;;;;;;;6.50;3.23;;;;;;;7.53;43.78;101502.13;30770285;28;20047;-77
2022/02/15 08:22:02;;;;;;;7.20;3.23;;;;;;;7.46;43.40;101508.19;30727593;28;20055;-76
2022/02/15 08:37:04;;;;;;;9.70;3.60;;;;;;;7.85;43.68;101495.22;30705641;28;20067;-76
2022/02/15 08:52:06;;;;;;;7.10;3.13;;;;;;;8.09;43.86;101480.47;30701748;28;20087;-76
2022/02/15 09:07:08;;;;;;;8.27;3.93;;;;;;;8.61;43.54;101467.16;30740891;28;20049;-76
2022/02/15 09:22:10;;;;;;;8.50;3.80;;;;;;;8.77;44.03;101467.69;30729560;28;20134;-75
2022/02/15 09:37:12;;;;;;;5.50;3.13;;;;;;;9.21;42.19;101454.91;30716207;28;20452;-76
2022/02/15 09:52:14;;;;;;;10.20;3.80;;;;;;;9.61;42.22;101442.41;30735763;28;20127;-76
2022/02/15 10:07:16;;;;;;;5.03;2.87;;;;;;;9.89;41.65;101423.59;30679818;28;20054;-74
2022/02/15 10:22:20;;;;;;;3.60;2.60;;;;;;;9.95;41.05;101404.22;30732131;28;20055;-76
2022/02/15 10:37:26;;;;;;;6.00;3.00;;;;;;;10.06;41.55;101378.69;30749597;28;20062;-76
2022/02/15 10:52:29;;;;;;;5.10;3.00;;;;;;;10.72;39.48;101375.69;30712748;28;20078;-76
2022/02/15 11:07:33;;;;;;;3.07;1.77;;;;;;;10.50;38.84;101356.69;30685693;28;20544;-78
2022/02/15 11:22:53;;;;;;;2.97;1.83;;;;;;;10.91;36.21;101327.16;30689218;29;20055;-75
2022/02/15 11:38:07;;;;;;;3.63;2.20;;;;;;;11.05;36.44;101315.50;30728783;29;20130;-76
2022/02/15 11:53:10;;;;;;;4.80;1.80;;;;;;;11.02;36.25;101288.34;30707828;29;20055;-76
2022/02/15 12:08:13;;;;;;;7.97;2.50;;;;;;;12.11;35.50;101269.94;30722246;28;20446;-75
2022/02/15 12:23:22;;;;;;;8.07;2.10;;;;;;;12.58;34.75;101261.00;30732578;28;20056;-75
2022/02/15 12:38:36;;;;;;;5.67;1.57;;;;;;;12.60;34.11;101258.63;30749279;28;20494;-75
2022/02/15 12:53:47;;;;;;;3.80;1.30;;;;;;;8.35;39.82;101259.72;30706493;28;20134;-76
2022/02/15 13:08:52;;;;;;;1.50;1.33;;;;;;;7.25;41.07;101275.56;30780282;28;20066;-76
2022/02/15 13:24:03;;;;;;;4.37;1.90;;;;;;;6.92;42.58;101254.69;30707988;28;20051;-75
2022/02/15 13:39:09;;;;;;;5.17;1.70;;;;;;;6.79;42.96;101250.66;30785985;28;20437;-76
2022/02/15 13:54:11;;;;;;;2.30;1.77;;;;;;;6.72;42.70;101253.25;30732900;28;20055;-76
2022/02/15 14:09:13;;;;;;;2.20;1.47;;;;;;;6.59;43.20;101238.41;30751628;28;20165;-76
2022/02/15 14:24:15;;;;;;;9.70;2.27;;;;;;;6.45;43.88;101244.34;30753166;28;20142;-76
2022/02/15 14:39:17;;;;;;;7.37;2.10;;;;;;;6.34;45.14;101246.91;30718482;28;20421;-76
2022/02/15 14:54:19;;;;;;;5.73;2.20;;;;;;;5.93;47.82;101267.38;30730012;29;20055;-77
2022/02/15 15:09:23;;;;;;;4.33;2.33;;;;;;;5.62;50.18;101259.47;30708434;28;20090;-76
2022/02/15 15:24:25;;;;;;;3.37;2.10;;;;;;;5.29;52.34;101263.44;30698735;28;20059;-77
2022/02/15 15:39:27;;;;;;;10.47;3.27;;;;;;;4.69;57.32;101279.09;30726813;28;20151;-76
2022/02/15 15:54:29;;;;;;;10.63;4.57;;;;;;;4.03;62.20;101289.72;30776513;28;20484;-76
2022/02/15 16:09:31;;;;;;;7.97;4.30;;;;;;;3.51;65.31;101314.06;30755707;28;20061;-78
2022/02/15 16:24:33;;;;;;;9.60;4.27;;;;;;;3.09;68.83;101331.22;30753198;28;20086;-77
2022/02/15 16:39:38;;;;;;;17.80;4.77;;;;;;;2.74;69.80;101330.94;30693130;29;20195;-75
2022/02/15 16:54:40;;;;;;;11.23;6.13;;;;;;;2.44;72.29;101321.53;30725947;28;20130;-77
2022/02/15 17:09:42;;;;;;;11.60;5.00;;;;;;;2.49;72.08;101307.91;30715879;28;20075;-77
2022/02/15 17:24:44;;;;;;;16.77;4.87;;;;;;;2.32;72.54;101295.50;30709693;28;20056;-77
2022/02/15 17:39:47;;;;;;;15.83;6.63;;;;;;;2.20;76.61;101289.34;30790161;28;20135;-76
2022/02/15 17:54:48;;;;;;;10.53;5.07;;;;;;;2.22;75.48;101277.16;30707627;29;20047;-75
2022/02/15 18:09:51;;;;;;;12.73;6.30;;;;;;;2.19;76.06;101283.19;30733552;28;20069;-78
2022/02/15 18:24:54;;;;;;;10.10;5.07;;;;;;;1.87;75.56;101297.41;30691154;28;20059;-76
2022/02/15 18:39:59;;;;;;;13.80;5.73;;;;;;;1.78;76.59;101305.53;30699109;29;20141;-76
2022/02/15 18:55:03;;;;;;;12.37;5.90;;;;;;;2.10;84.69;101279.84;30749170;28;20584;-77
2022/02/15 19:10:06;;;;;;;24.53;6.37;;;;;;;2.20;78.66;101263.31;30739677;28;20051;-77
2022/02/15 19:25:09;;;;;;;13.73;7.53;;;;;;;1.81;79.23;101282.66;30695349;28;20413;-79
2022/02/15 19:40:13;;;;;;;10.63;5.80;;;;;;;1.43;80.75;101293.53;30732018;28;20573;-76
2022/02/15 19:55:15;;;;;;;12.53;6.10;;;;;;;1.17;82.37;101301.78;30737904;28;20150;-80
2022/02/15 20:10:18;;;;;;;12.00;6.30;;;;;;;0.89;85.76;101312.97;30785738;28;20051;-76
2022/02/15 20:25:20;;;;;;;12.57;6.17;;;;;;;0.88;85.18;101300.69;30734748;28;20542;-76
2022/02/15 20:40:22;;;;;;;14.43;6.67;;;;;;;0.56;84.79;101304.78;30760426;28;20059;-76
2022/02/15 20:55:24;;;;;;;13.43;7.17;;;;;;;0.36;89.05;101294.81;30680222;28;20148;-76
2022/02/15 21:10:27;;;;;;;14.83;6.70;;;;;;;0.35;91.03;101295.91;30698945;28;20061;-76
2022/02/15 21:25:32;;;;;;;17.60;6.80;;;;;;;0.22;92.03;101297.69;30715067;28;20060;-78
2022/02/15 21:40:36;;;;;;;13.33;7.00;;;;;;;0.31;89.61;101292.31;30694055;28;20063;-76
2022/02/15 21:55:38;;;;;;;10.70;5.80;;;;;;;0.11;92.65;101309.03;30712948;28;20394;-76
2022/02/15 22:10:41;;;;;;;15.27;7.60;;;;;;;-0.08;93.91;101301.38;30739061;28;20051;-76
2022/02/15 22:25:43;;;;;;;20.17;7.67;;;;;;;-0.45;96.90;101292.94;30757485;28;20268;-76
2022/02/15 22:40:47;;;;;;;13.30;7.10;;;;;;;-0.52;99.11;101295.31;30684133;28;20058;-75
2022/02/15 22:55:49;;;;;;;10.60;4.80;;;;;;;-0.64;98.70;101284.47;30688675;28;20408;-77
2022/02/15 23:26:11;;;;;;;11.57;6.97;;;;;;;-0.49;100.00;101308.03;30734049;28;20060;-75
2022/02/15 23:41:17;;;;;;;11.63;6.73;;;;;;;-0.19;100.00;101300.13;30758561;28;20066;-76
2022/02/15 23:56:19;;;;;;;17.27;7.10;;;;;;;-0.12;98.85;101289.75;30705274;28;20146;-76
